sensor_id;sensor_type;location;lat;lon;timestamp;P1;durP1;ratioP1;P2;durP2;ratioP2
5904;SDS011;2978;42.012;24.880;2022-09-23T00:00:18;2.07;;;1.90;;
5904;SDS011;2978;42.012;24.880;2022-09-23T00:02:44;2.43;;;2.00;;
5904;SDS011;2978;42.012;24.880;2022-09-23T00:05:12;2.47;;;2.17;;
5904;SDS011;2978;42.012;24.880;2022-09-23T00:07:38;2.33;;;1.90;;
5904;SDS011;2978;42.012;24.880;2022-09-23T00:10:04;2.03;;;1.83;;
5904;SDS011;2978;42.012;24.880;2022-09-23T00:12:30;2.40;;;1.80;;
5904;SDS011;2978;42.012;24.880;2022-09-23T00:14:56;2.33;;;2.13;;
5904;SDS011;2978;42.012;24.880;2022-09-23T00:17:21;2.17;;;1.93;;
5904;SDS011;2978;42.012;24.880;2022-09-23T00:19:47;2.13;;;1.93;;
5904;SDS011;2978;42.012;24.880;2022-09-23T00:22:13;2.53;;;2.33;;
5904;SDS011;2978;42.012;24.880;2022-09-23T00:24:40;2.20;;;2.00;;
5904;SDS011;2978;42.012;24.880;2022-09-23T00:27:05;3.13;;;2.03;;
5904;SDS011;2978;42.012;24.880;2022-09-23T00:29:31;3.07;;;2.17;;
5904;SDS011;2978;42.012;24.880;2022-09-23T00:31:57;2.17;;;1.93;;
5904;SDS011;2978;42.012;24.880;2022-09-23T00:34:22;2.53;;;2.00;;
5904;SDS011;2978;42.012;24.880;2022-09-23T00:36:47;2.37;;;1.97;;
5904;SDS011;2978;42.012;24.880;2022-09-23T00:39:13;3.27;;;2.07;;
5904;SDS011;2978;42.012;24.880;2022-09-23T00:41:38;4.37;;;2.30;;
5904;SDS011;2978;42.012;24.880;2022-09-23T00:47:03;2.30;;;2.10;;
5904;SDS011;2978;42.012;24.880;2022-09-23T00:49:29;3.57;;;2.13;;
5904;SDS011;2978;42.012;24.880;2022-09-23T00:52:01;2.30;;;2.10;;
5904;SDS011;2978;42.012;24.880;2022-09-23T00:54:33;2.67;;;2.10;;
5904;SDS011;2978;42.012;24.880;2022-09-23T00:56:59;2.00;;;1.80;;
5904;SDS011;2978;42.012;24.880;2022-09-23T00:59:25;1.90;;;1.70;;
5904;SDS011;2978;42.012;24.880;2022-09-23T01:01:53;2.30;;;2.10;;
5904;SDS011;2978;42.012;24.880;2022-09-23T01:04:24;2.20;;;1.90;;
5904;SDS011;2978;42.012;24.880;2022-09-23T01:06:52;8.10;;;2.27;;
5904;SDS011;2978;42.012;24.880;2022-09-23T01:09:17;2.70;;;1.97;;
5904;SDS011;2978;42.012;24.880;2022-09-23T01:14:25;2.87;;;2.07;;
5904;SDS011;2978;42.012;24.880;2022-09-23T01:23:02;4.40;;;2.03;;
5904;SDS011;2978;42.012;24.880;2022-09-23T01:31:41;2.00;;;1.80;;
5904;SDS011;2978;42.012;24.880;2022-09-23T01:36:55;3.03;;;2.03;;
5904;SDS011;2978;42.012;24.880;2022-09-23T01:42:32;2.30;;;1.73;;
5904;SDS011;2978;42.012;24.880;2022-09-23T01:45:02;2.87;;;2.17;;
5904;SDS011;2978;42.012;24.880;2022-09-23T01:47:50;2.43;;;2.00;;
5904;SDS011;2978;42.012;24.880;2022-09-23T01:50:27;3.23;;;2.10;;
5904;SDS011;2978;42.012;24.880;2022-09-23T01:53:17;2.37;;;2.07;;
5904;SDS011;2978;42.012;24.880;2022-09-23T01:55:49;2.40;;;1.97;;
5904;SDS011;2978;42.012;24.880;2022-09-23T01:58:25;2.30;;;2.00;;
5904;SDS011;2978;42.012;24.880;2022-09-23T02:01:01;4.50;;;2.10;;
5904;SDS011;2978;42.012;24.880;2022-09-23T02:03:33;2.47;;;2.10;;
5904;SDS011;2978;42.012;24.880;2022-09-23T02:06:12;3.67;;;1.97;;
5904;SDS011;2978;42.012;24.880;2022-09-23T02:08:46;3.30;;;2.60;;
5904;SDS011;2978;42.012;24.880;2022-09-23T02:11:17;2.10;;;1.90;;
5904;SDS011;2978;42.012;24.880;2022-09-23T02:16:21;2.57;;;2.07;;
5904;SDS011;2978;42.012;24.880;2022-09-23T02:18:58;2.13;;;1.93;;
5904;SDS011;2978;42.012;24.880;2022-09-23T02:21:32;2.93;;;1.70;;
5904;SDS011;2978;42.012;24.880;2022-09-23T02:24:05;2.37;;;2.17;;
5904;SDS011;2978;42.012;24.880;2022-09-23T02:26:56;2.97;;;1.97;;
5904;SDS011;2978;42.012;24.880;2022-09-23T02:32:13;2.30;;;2.07;;
5904;SDS011;2978;42.012;24.880;2022-09-23T02:37:42;2.10;;;1.90;;
5904;SDS011;2978;42.012;24.880;2022-09-23T02:45:36;4.37;;;1.80;;
5904;SDS011;2978;42.012;24.880;2022-09-23T02:48:07;3.63;;;2.20;;
5904;SDS011;2978;42.012;24.880;2022-09-23T02:50:37;4.70;;;2.33;;
5904;SDS011;2978;42.012;24.880;2022-09-23T02:53:03;2.77;;;2.00;;
5904;SDS011;2978;42.012;24.880;2022-09-23T02:55:30;2.90;;;1.90;;
5904;SDS011;2978;42.012;24.880;2022-09-23T02:57:57;1.90;;;1.50;;
5904;SDS011;2978;42.012;24.880;2022-09-23T03:00:28;5.00;;;2.03;;
5904;SDS011;2978;42.012;24.880;2022-09-23T03:03:19;3.30;;;2.03;;
5904;SDS011;2978;42.012;24.880;2022-09-23T03:05:56;2.90;;;1.93;;
5904;SDS011;2978;42.012;24.880;2022-09-23T03:09:02;3.60;;;2.13;;
5904;SDS011;2978;42.012;24.880;2022-09-23T03:11:23;2.57;;;2.13;;
5904;SDS011;2978;42.012;24.880;2022-09-23T03:22:06;2.23;;;2.03;;
5904;SDS011;2978;42.012;24.880;2022-09-23T03:24:36;2.63;;;1.70;;
5904;SDS011;2978;42.012;24.880;2022-09-23T03:27:06;5.80;;;1.73;;
5904;SDS011;2978;42.012;24.880;2022-09-23T03:29:38;2.73;;;1.90;;
5904;SDS011;2978;42.012;24.880;2022-09-23T03:32:09;2.10;;;1.90;;
5904;SDS011;2978;42.012;24.880;2022-09-23T03:34:36;2.63;;;2.40;;
5904;SDS011;2978;42.012;24.880;2022-09-23T03:37:09;1.83;;;1.73;;
5904;SDS011;2978;42.012;24.880;2022-09-23T03:40:08;3.50;;;2.40;;
5904;SDS011;2978;42.012;24.880;2022-09-23T03:42:56;2.20;;;2.00;;
5904;SDS011;2978;42.012;24.880;2022-09-23T03:45:25;2.37;;;2.17;;
5904;SDS011;2978;42.012;24.880;2022-09-23T03:47:55;4.10;;;1.93;;
5904;SDS011;2978;42.012;24.880;2022-09-23T03:50:21;3.37;;;1.53;;
5904;SDS011;2978;42.012;24.880;2022-09-23T03:52:46;5.73;;;1.93;;
5904;SDS011;2978;42.012;24.880;2022-09-23T03:55:13;2.00;;;1.80;;
5904;SDS011;2978;42.012;24.880;2022-09-23T03:57:41;4.03;;;2.23;;
5904;SDS011;2978;42.012;24.880;2022-09-23T04:00:07;2.40;;;2.03;;
5904;SDS011;2978;42.012;24.880;2022-09-23T04:02:33;3.03;;;1.97;;
5904;SDS011;2978;42.012;24.880;2022-09-23T04:04:58;11.03;;;2.43;;
5904;SDS011;2978;42.012;24.880;2022-09-23T04:07:25;8.50;;;1.83;;
5904;SDS011;2978;42.012;24.880;2022-09-23T04:09:51;2.43;;;1.80;;
5904;SDS011;2978;42.012;24.880;2022-09-23T04:12:17;2.00;;;1.80;;
5904;SDS011;2978;42.012;24.880;2022-09-23T04:14:43;2.90;;;2.10;;
5904;SDS011;2978;42.012;24.880;2022-09-23T04:17:09;2.80;;;2.13;;
5904;SDS011;2978;42.012;24.880;2022-09-23T04:19:35;2.60;;;1.93;;
5904;SDS011;2978;42.012;24.880;2022-09-23T04:22:01;2.60;;;2.03;;
5904;SDS011;2978;42.012;24.880;2022-09-23T04:24:27;2.37;;;2.17;;
5904;SDS011;2978;42.012;24.880;2022-09-23T04:26:53;2.77;;;2.27;;
5904;SDS011;2978;42.012;24.880;2022-09-23T04:29:20;3.83;;;2.00;;
5904;SDS011;2978;42.012;24.880;2022-09-23T04:31:46;10.37;;;2.70;;
5904;SDS011;2978;42.012;24.880;2022-09-23T04:34:12;5.43;;;2.30;;
5904;SDS011;2978;42.012;24.880;2022-09-23T04:36:39;4.43;;;2.07;;
5904;SDS011;2978;42.012;24.880;2022-09-23T04:39:05;2.33;;;2.13;;
5904;SDS011;2978;42.012;24.880;2022-09-23T04:41:31;2.13;;;2.03;;
5904;SDS011;2978;42.012;24.880;2022-09-23T04:43:56;3.90;;;2.10;;
5904;SDS011;2978;42.012;24.880;2022-09-23T04:46:22;4.17;;;2.53;;
5904;SDS011;2978;42.012;24.880;2022-09-23T04:48:48;2.77;;;2.57;;
5904;SDS011;2978;42.012;24.880;2022-09-23T04:51:15;2.90;;;2.60;;
5904;SDS011;2978;42.012;24.880;2022-09-23T04:53:45;2.33;;;2.03;;
5904;SDS011;2978;42.012;24.880;2022-09-23T04:56:19;9.77;;;2.53;;
5904;SDS011;2978;42.012;24.880;2022-09-23T04:58:46;4.10;;;2.53;;
5904;SDS011;2978;42.012;24.880;2022-09-23T05:03:44;3.10;;;1.97;;
5904;SDS011;2978;42.012;24.880;2022-09-23T05:06:11;2.80;;;2.23;;
5904;SDS011;2978;42.012;24.880;2022-09-23T05:08:38;2.10;;;1.90;;
5904;SDS011;2978;42.012;24.880;2022-09-23T05:11:04;2.57;;;1.83;;
5904;SDS011;2978;42.012;24.880;2022-09-23T05:13:30;2.33;;;1.83;;
5904;SDS011;2978;42.012;24.880;2022-09-23T05:16:02;3.50;;;1.80;;
5904;SDS011;2978;42.012;24.880;2022-09-23T05:18:30;3.90;;;1.60;;
5904;SDS011;2978;42.012;24.880;2022-09-23T05:20:56;2.70;;;1.90;;
5904;SDS011;2978;42.012;24.880;2022-09-23T05:23:22;10.47;;;2.20;;
5904;SDS011;2978;42.012;24.880;2022-09-23T05:25:48;2.90;;;2.20;;
5904;SDS011;2978;42.012;24.880;2022-09-23T05:28:24;2.33;;;1.83;;
5904;SDS011;2978;42.012;24.880;2022-09-23T05:31:05;2.93;;;2.00;;
5904;SDS011;2978;42.012;24.880;2022-09-23T05:33:42;6.87;;;2.10;;
5904;SDS011;2978;42.012;24.880;2022-09-23T05:36:10;3.67;;;2.40;;
5904;SDS011;2978;42.012;24.880;2022-09-23T05:38:35;3.90;;;2.30;;
5904;SDS011;2978;42.012;24.880;2022-09-23T05:41:02;4.80;;;2.17;;
5904;SDS011;2978;42.012;24.880;2022-09-23T05:43:29;2.90;;;2.60;;
5904;SDS011;2978;42.012;24.880;2022-09-23T05:46:05;4.80;;;1.97;;
5904;SDS011;2978;42.012;24.880;2022-09-23T05:48:31;5.90;;;2.30;;
5904;SDS011;2978;42.012;24.880;2022-09-23T05:50:58;4.47;;;2.30;;
5904;SDS011;2978;42.012;24.880;2022-09-23T05:53:24;2.80;;;2.33;;
5904;SDS011;2978;42.012;24.880;2022-09-23T05:55:50;4.40;;;2.27;;
5904;SDS011;2978;42.012;24.880;2022-09-23T05:58:18;5.60;;;2.80;;
5904;SDS011;2978;42.012;24.880;2022-09-23T06:00:43;5.60;;;2.20;;
5904;SDS011;2978;42.012;24.880;2022-09-23T06:03:12;2.13;;;1.83;;
5904;SDS011;2978;42.012;24.880;2022-09-23T06:05:38;3.47;;;2.50;;
5904;SDS011;2978;42.012;24.880;2022-09-23T06:08:04;2.40;;;2.20;;
5904;SDS011;2978;42.012;24.880;2022-09-23T06:10:30;4.30;;;2.00;;
5904;SDS011;2978;42.012;24.880;2022-09-23T06:13:00;2.53;;;2.00;;
5904;SDS011;2978;42.012;24.880;2022-09-23T06:15:26;4.10;;;2.20;;
5904;SDS011;2978;42.012;24.880;2022-09-23T06:17:51;2.13;;;1.53;;
5904;SDS011;2978;42.012;24.880;2022-09-23T06:20:17;4.40;;;2.10;;
5904;SDS011;2978;42.012;24.880;2022-09-23T06:22:42;5.00;;;2.70;;
5904;SDS011;2978;42.012;24.880;2022-09-23T06:25:08;4.93;;;2.10;;
5904;SDS011;2978;42.012;24.880;2022-09-23T06:27:33;3.70;;;2.67;;
5904;SDS011;2978;42.012;24.880;2022-09-23T06:29:59;6.60;;;2.20;;
5904;SDS011;2978;42.012;24.880;2022-09-23T06:32:24;5.13;;;2.47;;
5904;SDS011;2978;42.012;24.880;2022-09-23T06:34:49;4.00;;;2.07;;
5904;SDS011;2978;42.012;24.880;2022-09-23T06:37:15;6.07;;;2.83;;
5904;SDS011;2978;42.012;24.880;2022-09-23T06:39:41;3.83;;;2.57;;
5904;SDS011;2978;42.012;24.880;2022-09-23T06:42:06;6.90;;;2.30;;
5904;SDS011;2978;42.012;24.880;2022-09-23T06:44:32;2.80;;;2.13;;
5904;SDS011;2978;42.012;24.880;2022-09-23T06:46:57;5.77;;;2.60;;
5904;SDS011;2978;42.012;24.880;2022-09-23T06:49:23;3.17;;;2.47;;
5904;SDS011;2978;42.012;24.880;2022-09-23T06:51:48;18.53;;;6.53;;
5904;SDS011;2978;42.012;24.880;2022-09-23T06:54:14;8.27;;;3.80;;
5904;SDS011;2978;42.012;24.880;2022-09-23T06:56:39;5.97;;;3.90;;
5904;SDS011;2978;42.012;24.880;2022-09-23T06:59:08;6.70;;;3.40;;
5904;SDS011;2978;42.012;24.880;2022-09-23T07:01:35;7.50;;;3.37;;
5904;SDS011;2978;42.012;24.880;2022-09-23T07:04:00;3.80;;;3.03;;
5904;SDS011;2978;42.012;24.880;2022-09-23T07:06:26;3.17;;;2.53;;
5904;SDS011;2978;42.012;24.880;2022-09-23T07:08:51;5.57;;;2.90;;
5904;SDS011;2978;42.012;24.880;2022-09-23T07:11:17;3.33;;;3.03;;
5904;SDS011;2978;42.012;24.880;2022-09-23T07:13:46;5.87;;;3.23;;
5904;SDS011;2978;42.012;24.880;2022-09-23T07:16:12;4.23;;;2.70;;
5904;SDS011;2978;42.012;24.880;2022-09-23T07:18:37;5.67;;;3.17;;
5904;SDS011;2978;42.012;24.880;2022-09-23T07:21:04;10.43;;;2.90;;
5904;SDS011;2978;42.012;24.880;2022-09-23T07:23:31;3.13;;;2.30;;
5904;SDS011;2978;42.012;24.880;2022-09-23T07:25:57;6.40;;;2.87;;
5904;SDS011;2978;42.012;24.880;2022-09-23T07:28:23;4.57;;;2.97;;
5904;SDS011;2978;42.012;24.880;2022-09-23T07:30:53;5.63;;;3.00;;
5904;SDS011;2978;42.012;24.880;2022-09-23T07:33:18;4.37;;;3.27;;
5904;SDS011;2978;42.012;24.880;2022-09-23T07:35:44;4.60;;;3.10;;
5904;SDS011;2978;42.012;24.880;2022-09-23T07:38:09;5.50;;;3.20;;
5904;SDS011;2978;42.012;24.880;2022-09-23T07:40:36;4.07;;;2.43;;
5904;SDS011;2978;42.012;24.880;2022-09-23T07:43:03;4.00;;;2.80;;
5904;SDS011;2978;42.012;24.880;2022-09-23T07:45:29;3.10;;;2.27;;
5904;SDS011;2978;42.012;24.880;2022-09-23T07:47:57;3.57;;;2.73;;
5904;SDS011;2978;42.012;24.880;2022-09-23T07:50:22;6.03;;;3.00;;
5904;SDS011;2978;42.012;24.880;2022-09-23T07:52:48;4.00;;;2.50;;
5904;SDS011;2978;42.012;24.880;2022-09-23T07:55:16;3.40;;;3.00;;
5904;SDS011;2978;42.012;24.880;2022-09-23T07:57:43;4.03;;;3.07;;
5904;SDS011;2978;42.012;24.880;2022-09-23T08:00:09;4.13;;;2.97;;
5904;SDS011;2978;42.012;24.880;2022-09-23T08:02:37;4.17;;;2.33;;
5904;SDS011;2978;42.012;24.880;2022-09-23T08:05:03;5.43;;;3.43;;
5904;SDS011;2978;42.012;24.880;2022-09-23T08:07:29;4.60;;;2.23;;
5904;SDS011;2978;42.012;24.880;2022-09-23T08:09:58;4.60;;;2.77;;
5904;SDS011;2978;42.012;24.880;2022-09-23T08:12:25;4.17;;;2.10;;
5904;SDS011;2978;42.012;24.880;2022-09-23T08:14:51;3.90;;;2.50;;
5904;SDS011;2978;42.012;24.880;2022-09-23T08:17:16;2.60;;;2.40;;
5904;SDS011;2978;42.012;24.880;2022-09-23T08:19:42;6.27;;;2.20;;
5904;SDS011;2978;42.012;24.880;2022-09-23T08:22:07;2.80;;;2.20;;
5904;SDS011;2978;42.012;24.880;2022-09-23T08:24:32;3.03;;;2.20;;
5904;SDS011;2978;42.012;24.880;2022-09-23T08:26:58;5.63;;;2.40;;
5904;SDS011;2978;42.012;24.880;2022-09-23T08:29:23;6.80;;;2.57;;
5904;SDS011;2978;42.012;24.880;2022-09-23T08:31:49;5.43;;;2.30;;
5904;SDS011;2978;42.012;24.880;2022-09-23T08:34:16;4.33;;;2.30;;
5904;SDS011;2978;42.012;24.880;2022-09-23T08:36:42;4.00;;;2.47;;
5904;SDS011;2978;42.012;24.880;2022-09-23T08:39:08;4.27;;;2.10;;
5904;SDS011;2978;42.012;24.880;2022-09-23T08:44:20;9.33;;;2.20;;
5904;SDS011;2978;42.012;24.880;2022-09-23T08:49:43;2.80;;;2.23;;
5904;SDS011;2978;42.012;24.880;2022-09-23T08:52:21;4.37;;;2.57;;
5904;SDS011;2978;42.012;24.880;2022-09-23T08:54:53;5.53;;;2.30;;
5904;SDS011;2978;42.012;24.880;2022-09-23T08:57:31;5.37;;;2.40;;
5904;SDS011;2978;42.012;24.880;2022-09-23T08:59:58;5.20;;;2.70;;
5904;SDS011;2978;42.012;24.880;2022-09-23T09:02:25;3.70;;;2.20;;
5904;SDS011;2978;42.012;24.880;2022-09-23T09:04:52;2.37;;;2.00;;
5904;SDS011;2978;42.012;24.880;2022-09-23T09:07:22;4.03;;;2.80;;
5904;SDS011;2978;42.012;24.880;2022-09-23T09:09:57;4.70;;;2.37;;
5904;SDS011;2978;42.012;24.880;2022-09-23T09:12:33;3.67;;;2.60;;
5904;SDS011;2978;42.012;24.880;2022-09-23T09:15:19;2.80;;;2.30;;
5904;SDS011;2978;42.012;24.880;2022-09-23T09:23:36;5.30;;;1.90;;
5904;SDS011;2978;42.012;24.880;2022-09-23T09:26:10;3.10;;;2.33;;
5904;SDS011;2978;42.012;24.880;2022-09-23T09:28:41;2.27;;;1.80;;
5904;SDS011;2978;42.012;24.880;2022-09-23T09:33:50;4.97;;;2.33;;
5904;SDS011;2978;42.012;24.880;2022-09-23T09:39:14;2.87;;;2.00;;
5904;SDS011;2978;42.012;24.880;2022-09-23T09:41:40;2.03;;;1.80;;
5904;SDS011;2978;42.012;24.880;2022-09-23T09:44:24;5.77;;;2.30;;
5904;SDS011;2978;42.012;24.880;2022-09-23T09:47:06;6.00;;;2.23;;
5904;SDS011;2978;42.012;24.880;2022-09-23T09:52:25;4.43;;;2.43;;
5904;SDS011;2978;42.012;24.880;2022-09-23T09:54:52;2.53;;;1.73;;
5904;SDS011;2978;42.012;24.880;2022-09-23T09:59:55;2.20;;;1.67;;
5904;SDS011;2978;42.012;24.880;2022-09-23T10:02:28;2.13;;;1.73;;
5904;SDS011;2978;42.012;24.880;2022-09-23T10:04:58;3.30;;;2.23;;
5904;SDS011;2978;42.012;24.880;2022-09-23T10:07:28;4.33;;;1.83;;
5904;SDS011;2978;42.012;24.880;2022-09-23T10:09:55;3.07;;;2.30;;
5904;SDS011;2978;42.012;24.880;2022-09-23T10:12:21;2.30;;;1.83;;
5904;SDS011;2978;42.012;24.880;2022-09-23T10:14:50;3.70;;;2.00;;
5904;SDS011;2978;42.012;24.880;2022-09-23T10:17:22;3.20;;;1.90;;
5904;SDS011;2978;42.012;24.880;2022-09-23T10:19:59;2.93;;;1.90;;
5904;SDS011;2978;42.012;24.880;2022-09-23T10:22:31;3.70;;;2.13;;
5904;SDS011;2978;42.012;24.880;2022-09-23T10:25:02;3.90;;;2.03;;
5904;SDS011;2978;42.012;24.880;2022-09-23T10:27:33;3.17;;;2.20;;
5904;SDS011;2978;42.012;24.880;2022-09-23T10:30:00;2.40;;;1.73;;
5904;SDS011;2978;42.012;24.880;2022-09-23T10:32:31;5.50;;;2.67;;
5904;SDS011;2978;42.012;24.880;2022-09-23T10:37:51;3.30;;;2.10;;
5904;SDS011;2978;42.012;24.880;2022-09-23T10:46:20;6.47;;;2.73;;
5904;SDS011;2978;42.012;24.880;2022-09-23T10:51:37;5.20;;;1.70;;
5904;SDS011;2978;42.012;24.880;2022-09-23T10:56:46;3.47;;;1.97;;
5904;SDS011;2978;42.012;24.880;2022-09-23T11:28:10;1.73;;;1.30;;
5904;SDS011;2978;42.012;24.880;2022-09-23T11:33:33;3.10;;;1.87;;
5904;SDS011;2978;42.012;24.880;2022-09-23T11:36:10;3.20;;;1.80;;
5904;SDS011;2978;42.012;24.880;2022-09-23T11:38:48;3.10;;;1.90;;
5904;SDS011;2978;42.012;24.880;2022-09-23T11:41:29;1.80;;;1.33;;
5904;SDS011;2978;42.012;24.880;2022-09-23T11:44:05;3.70;;;2.13;;
5904;SDS011;2978;42.012;24.880;2022-09-23T11:46:42;3.63;;;1.70;;
5904;SDS011;2978;42.012;24.880;2022-09-23T11:49:15;2.23;;;1.40;;
5904;SDS011;2978;42.012;24.880;2022-09-23T11:52:05;8.20;;;1.83;;
5904;SDS011;2978;42.012;24.880;2022-09-23T11:54:44;4.60;;;1.57;;
5904;SDS011;2978;42.012;24.880;2022-09-23T12:00:16;2.43;;;1.53;;
5904;SDS011;2978;42.012;24.880;2022-09-23T12:05:37;3.53;;;2.23;;
5904;SDS011;2978;42.012;24.880;2022-09-23T12:08:11;4.60;;;1.60;;
5904;SDS011;2978;42.012;24.880;2022-09-23T12:13:21;2.23;;;1.70;;
5904;SDS011;2978;42.012;24.880;2022-09-23T12:18:43;4.10;;;1.60;;
5904;SDS011;2978;42.012;24.880;2022-09-23T12:26:49;2.10;;;1.70;;
5904;SDS011;2978;42.012;24.880;2022-09-23T12:29:18;2.40;;;1.43;;
5904;SDS011;2978;42.012;24.880;2022-09-23T12:31:44;2.17;;;1.47;;
5904;SDS011;2978;42.012;24.880;2022-09-23T12:34:21;1.83;;;1.37;;
5904;SDS011;2978;42.012;24.880;2022-09-23T12:37:11;2.07;;;1.40;;
5904;SDS011;2978;42.012;24.880;2022-09-23T12:39:37;2.10;;;1.70;;
5904;SDS011;2978;42.012;24.880;2022-09-23T12:42:04;1.60;;;1.10;;
5904;SDS011;2978;42.012;24.880;2022-09-23T12:44:40;2.10;;;1.57;;
5904;SDS011;2978;42.012;24.880;2022-09-23T12:49:45;2.20;;;1.30;;
5904;SDS011;2978;42.012;24.880;2022-09-23T12:54:41;4.90;;;1.50;;
5904;SDS011;2978;42.012;24.880;2022-09-23T12:57:09;1.77;;;1.10;;
5904;SDS011;2978;42.012;24.880;2022-09-23T13:04:57;2.00;;;1.50;;
5904;SDS011;2978;42.012;24.880;2022-09-23T13:07:51;1.90;;;1.50;;
5904;SDS011;2978;42.012;24.880;2022-09-23T13:10:29;4.13;;;1.93;;
5904;SDS011;2978;42.012;24.880;2022-09-23T13:12:57;2.17;;;1.20;;
5904;SDS011;2978;42.012;24.880;2022-09-23T13:15:28;1.90;;;1.40;;
5904;SDS011;2978;42.012;24.880;2022-09-23T13:20:42;2.43;;;1.57;;
5904;SDS011;2978;42.012;24.880;2022-09-23T13:25:53;3.03;;;1.70;;
5904;SDS011;2978;42.012;24.880;2022-09-23T13:28:25;1.60;;;1.20;;
5904;SDS011;2978;42.012;24.880;2022-09-23T13:30:53;2.13;;;1.10;;
5904;SDS011;2978;42.012;24.880;2022-09-23T13:36:21;3.60;;;1.50;;
5904;SDS011;2978;42.012;24.880;2022-09-23T13:38:46;2.43;;;1.27;;
5904;SDS011;2978;42.012;24.880;2022-09-23T13:41:22;3.67;;;1.30;;
5904;SDS011;2978;42.012;24.880;2022-09-23T13:43:53;2.03;;;1.30;;
5904;SDS011;2978;42.012;24.880;2022-09-23T13:46:25;1.83;;;1.40;;
5904;SDS011;2978;42.012;24.880;2022-09-23T13:48:53;1.97;;;1.40;;
5904;SDS011;2978;42.012;24.880;2022-09-23T13:51:26;6.73;;;1.80;;
5904;SDS011;2978;42.012;24.880;2022-09-23T13:53:56;2.23;;;1.43;;
5904;SDS011;2978;42.012;24.880;2022-09-23T13:56:24;1.60;;;1.10;;
5904;SDS011;2978;42.012;24.880;2022-09-23T13:58:51;2.67;;;1.60;;
5904;SDS011;2978;42.012;24.880;2022-09-23T14:01:28;5.60;;;2.10;;
5904;SDS011;2978;42.012;24.880;2022-09-23T14:03:58;6.30;;;2.73;;
5904;SDS011;2978;42.012;24.880;2022-09-23T14:06:26;3.30;;;2.10;;
5904;SDS011;2978;42.012;24.880;2022-09-23T14:08:53;3.27;;;2.07;;
5904;SDS011;2978;42.012;24.880;2022-09-23T14:11:21;2.70;;;1.70;;
5904;SDS011;2978;42.012;24.880;2022-09-23T14:13:53;2.50;;;2.20;;
5904;SDS011;2978;42.012;24.880;2022-09-23T14:16:20;6.93;;;2.07;;
5904;SDS011;2978;42.012;24.880;2022-09-23T14:18:55;1.93;;;1.73;;
5904;SDS011;2978;42.012;24.880;2022-09-23T14:21:41;7.63;;;1.90;;
5904;SDS011;2978;42.012;24.880;2022-09-23T14:26:38;2.43;;;1.90;;
5904;SDS011;2978;42.012;24.880;2022-09-23T14:29:10;3.83;;;1.93;;
5904;SDS011;2978;42.012;24.880;2022-09-23T14:31:52;3.97;;;2.10;;
5904;SDS011;2978;42.012;24.880;2022-09-23T14:45:40;3.70;;;2.17;;
5904;SDS011;2978;42.012;24.880;2022-09-23T14:48:15;3.53;;;2.30;;
5904;SDS011;2978;42.012;24.880;2022-09-23T14:53:34;4.23;;;2.10;;
5904;SDS011;2978;42.012;24.880;2022-09-23T15:03:54;2.03;;;1.40;;
5904;SDS011;2978;42.012;24.880;2022-09-23T15:06:21;1.83;;;1.50;;
5904;SDS011;2978;42.012;24.880;2022-09-23T15:08:47;3.93;;;1.93;;
5904;SDS011;2978;42.012;24.880;2022-09-23T15:11:13;6.73;;;2.43;;
5904;SDS011;2978;42.012;24.880;2022-09-23T15:13:39;3.20;;;1.70;;
5904;SDS011;2978;42.012;24.880;2022-09-23T15:16:08;1.83;;;1.60;;
5904;SDS011;2978;42.012;24.880;2022-09-23T15:18:37;5.57;;;2.00;;
5904;SDS011;2978;42.012;24.880;2022-09-23T15:21:10;2.60;;;1.77;;
5904;SDS011;2978;42.012;24.880;2022-09-23T15:26:22;4.10;;;1.90;;
5904;SDS011;2978;42.012;24.880;2022-09-23T15:29:06;5.10;;;2.67;;
5904;SDS011;2978;42.012;24.880;2022-09-23T15:31:33;4.43;;;2.70;;
5904;SDS011;2978;42.012;24.880;2022-09-23T15:34:00;4.90;;;2.40;;
5904;SDS011;2978;42.012;24.880;2022-09-23T15:36:26;13.03;;;3.20;;
5904;SDS011;2978;42.012;24.880;2022-09-23T15:38:52;6.83;;;3.23;;
5904;SDS011;2978;42.012;24.880;2022-09-23T15:41:21;3.07;;;2.57;;
5904;SDS011;2978;42.012;24.880;2022-09-23T15:43:48;6.30;;;2.80;;
5904;SDS011;2978;42.012;24.880;2022-09-23T15:46:22;4.57;;;2.60;;
5904;SDS011;2978;42.012;24.880;2022-09-23T15:48:59;7.63;;;3.40;;
5904;SDS011;2978;42.012;24.880;2022-09-23T15:51:26;8.40;;;3.47;;
5904;SDS011;2978;42.012;24.880;2022-09-23T15:53:53;6.27;;;3.17;;
5904;SDS011;2978;42.012;24.880;2022-09-23T15:56:23;6.53;;;3.90;;
5904;SDS011;2978;42.012;24.880;2022-09-23T15:58:49;5.93;;;2.90;;
5904;SDS011;2978;42.012;24.880;2022-09-23T16:01:20;6.67;;;3.00;;
5904;SDS011;2978;42.012;24.880;2022-09-23T16:03:53;6.33;;;2.30;;
5904;SDS011;2978;42.012;24.880;2022-09-23T16:06:19;7.77;;;2.97;;
5904;SDS011;2978;42.012;24.880;2022-09-23T16:08:45;8.70;;;3.37;;
5904;SDS011;2978;42.012;24.880;2022-09-23T16:11:17;4.53;;;2.90;;
5904;SDS011;2978;42.012;24.880;2022-09-23T16:13:46;3.60;;;2.73;;
5904;SDS011;2978;42.012;24.880;2022-09-23T16:16:12;4.00;;;2.80;;
5904;SDS011;2978;42.012;24.880;2022-09-23T16:18:37;8.60;;;3.00;;
5904;SDS011;2978;42.012;24.880;2022-09-23T16:21:07;4.53;;;2.43;;
5904;SDS011;2978;42.012;24.880;2022-09-23T16:23:36;3.37;;;2.43;;
5904;SDS011;2978;42.012;24.880;2022-09-23T16:28:44;3.30;;;2.70;;
5904;SDS011;2978;42.012;24.880;2022-09-23T16:31:11;3.07;;;2.50;;
5904;SDS011;2978;42.012;24.880;2022-09-23T16:33:40;7.20;;;3.47;;
5904;SDS011;2978;42.012;24.880;2022-09-23T16:36:08;5.00;;;2.60;;
5904;SDS011;2978;42.012;24.880;2022-09-23T16:38:41;10.27;;;2.90;;
5904;SDS011;2978;42.012;24.880;2022-09-23T16:41:06;5.60;;;3.20;;
5904;SDS011;2978;42.012;24.880;2022-09-23T16:43:32;4.70;;;2.80;;
5904;SDS011;2978;42.012;24.880;2022-09-23T16:46:03;7.73;;;2.60;;
5904;SDS011;2978;42.012;24.880;2022-09-23T16:48:30;10.63;;;2.40;;
5904;SDS011;2978;42.012;24.880;2022-09-23T16:50:56;4.50;;;2.37;;
5904;SDS011;2978;42.012;24.880;2022-09-23T16:53:27;4.37;;;2.90;;
5904;SDS011;2978;42.012;24.880;2022-09-23T16:55:53;6.00;;;3.33;;
5904;SDS011;2978;42.012;24.880;2022-09-23T16:58:22;5.60;;;3.53;;
5904;SDS011;2978;42.012;24.880;2022-09-23T17:00:48;7.60;;;2.70;;
5904;SDS011;2978;42.012;24.880;2022-09-23T17:03:32;5.07;;;3.00;;
5904;SDS011;2978;42.012;24.880;2022-09-23T17:06:04;3.70;;;2.23;;
5904;SDS011;2978;42.012;24.880;2022-09-23T17:08:31;4.13;;;3.00;;
5904;SDS011;2978;42.012;24.880;2022-09-23T17:10:57;4.70;;;3.70;;
5904;SDS011;2978;42.012;24.880;2022-09-23T17:13:24;4.10;;;2.10;;
5904;SDS011;2978;42.012;24.880;2022-09-23T17:15:52;2.43;;;2.23;;
5904;SDS011;2978;42.012;24.880;2022-09-23T17:18:18;5.17;;;2.70;;
5904;SDS011;2978;42.012;24.880;2022-09-23T17:21:06;4.57;;;2.30;;
5904;SDS011;2978;42.012;24.880;2022-09-23T17:23:32;9.13;;;2.27;;
5904;SDS011;2978;42.012;24.880;2022-09-23T17:25:59;3.87;;;2.47;;
5904;SDS011;2978;42.012;24.880;2022-09-23T17:28:26;7.50;;;2.60;;
5904;SDS011;2978;42.012;24.880;2022-09-23T17:31:03;7.37;;;2.43;;
5904;SDS011;2978;42.012;24.880;2022-09-23T17:33:31;3.10;;;2.30;;
5904;SDS011;2978;42.012;24.880;2022-09-23T17:36:04;4.30;;;2.60;;
5904;SDS011;2978;42.012;24.880;2022-09-23T17:38:31;3.60;;;2.23;;
5904;SDS011;2978;42.012;24.880;2022-09-23T17:40:58;4.37;;;2.20;;
5904;SDS011;2978;42.012;24.880;2022-09-23T17:43:26;3.10;;;2.33;;
5904;SDS011;2978;42.012;24.880;2022-09-23T17:45:55;3.63;;;2.10;;
5904;SDS011;2978;42.012;24.880;2022-09-23T17:48:30;3.53;;;2.30;;
5904;SDS011;2978;42.012;24.880;2022-09-23T17:50:59;5.93;;;3.37;;
5904;SDS011;2978;42.012;24.880;2022-09-23T17:53:29;4.27;;;2.23;;
5904;SDS011;2978;42.012;24.880;2022-09-23T17:55:57;4.00;;;2.40;;
5904;SDS011;2978;42.012;24.880;2022-09-23T17:58:24;4.50;;;2.40;;
5904;SDS011;2978;42.012;24.880;2022-09-23T18:00:54;5.40;;;2.03;;
5904;SDS011;2978;42.012;24.880;2022-09-23T18:03:20;6.03;;;2.57;;
5904;SDS011;2978;42.012;24.880;2022-09-23T18:05:46;4.40;;;2.33;;
5904;SDS011;2978;42.012;24.880;2022-09-23T18:08:11;3.03;;;2.30;;
5904;SDS011;2978;42.012;24.880;2022-09-23T18:10:37;8.63;;;2.00;;
5904;SDS011;2978;42.012;24.880;2022-09-23T18:13:02;4.13;;;1.93;;
5904;SDS011;2978;42.012;24.880;2022-09-23T18:15:28;3.03;;;2.10;;